Time;durP1;ratioP1;P1;durP2;ratioP2;P2;SDS_P1;SDS_P2;PMS_P1;PMS_P2;Temp;Humidity;BMP_temperature;BMP_pressure;BME280_temperature;BME280_humidity;BME280_pressure;Samples;Min_cycle;Max_cycle;Signal;HPM_P1;HPM_P2
2021/05/05 00:01:48;;;;;;;6.20;3.83;;;;;;;;;;746793;186;625551;-70
2021/05/05 00:04:14;;;;;;;6.77;3.67;;;;;;;;;;750286;184;631333;-69
2021/05/05 00:06:41;;;;;;;5.30;3.40;;;;;;;;;;753267;186;620013;-71
2021/05/05 00:09:07;;;;;;;5.33;3.33;;;;;;;;;;749320;185;915583;-70
2021/05/05 00:11:32;;;;;;;3.70;2.70;;;;;;;;;;746170;185;924541;-69
2021/05/05 00:13:58;;;;;;;5.70;3.27;;;;;;;;;;748640;185;915179;-69
2021/05/05 00:16:24;;;;;;;5.30;3.23;;;;;;;;;;742805;185;919592;-69
2021/05/05 00:18:50;;;;;;;9.60;3.37;;;;;;;;;;744009;185;915106;-69
2021/05/05 00:21:16;;;;;;;7.03;3.00;;;;;;;;;;743671;187;919005;-69
2021/05/05 00:23:42;;;;;;;4.00;2.80;;;;;;;;;;745727;185;905352;-68
2021/05/05 00:26:08;;;;;;;7.03;2.90;;;;;;;;;;743632;187;919100;-69
2021/05/05 00:28:33;;;;;;;6.18;2.80;;;;;;;;;;742568;185;918308;-70
2021/05/05 00:30:59;;;;;;;6.73;2.80;;;;;;;;;;750465;186;919363;-69
2021/05/05 00:33:26;;;;;;;7.47;3.33;;;;;;;;;;744710;187;919472;-70
2021/05/05 00:35:52;;;;;;;6.33;3.10;;;;;;;;;;749944;187;621551;-70
2021/05/05 00:38:18;;;;;;;3.90;2.60;;;;;;;;;;747766;185;619099;-69
2021/05/05 00:40:44;;;;;;;7.40;2.60;;;;;;;;;;749169;186;622792;-69
2021/05/05 00:43:10;;;;;;;4.83;3.20;;;;;;;;;;745755;184;946063;-70
2021/05/05 00:45:35;;;;;;;3.80;2.73;;;;;;;;;;753069;186;633819;-70
2021/05/05 00:48:02;;;;;;;6.73;3.37;;;;;;;;;;748642;185;627589;-70
2021/05/05 00:50:28;;;;;;;4.30;3.27;;;;;;;;;;742333;185;919137;-70
2021/05/05 00:52:54;;;;;;;4.13;2.97;;;;;;;;;;735158;188;2147853;-70
2021/05/05 00:55:20;;;;;;;4.10;2.83;;;;;;;;;;747248;186;902326;-70
2021/05/05 00:57:46;;;;;;;5.23;3.60;;;;;;;;;;745175;185;919577;-70
2021/05/05 01:00:12;;;;;;;5.40;3.20;;;;;;;;;;747563;186;622019;-70
2021/05/05 01:02:38;;;;;;;5.50;3.13;;;;;;;;;;754216;185;621654;-70
2021/05/05 01:05:04;;;;;;;9.10;2.95;;;;;;;;;;746728;184;721738;-69
2021/05/05 01:07:30;;;;;;;5.07;3.03;;;;;;;;;;747231;186;918894;-70
2021/05/05 01:09:56;;;;;;;5.43;2.83;;;;;;;;;;748917;187;901973;-69
2021/05/05 01:12:21;;;;;;;3.73;2.73;;;;;;;;;;745372;186;919097;-70
2021/05/05 01:14:49;;;;;;;4.60;3.07;;;;;;;;;;742030;185;919784;-69
2021/05/05 01:17:13;;;;;;;8.60;4.50;;;;;;;;;;743694;186;919295;-69
2021/05/05 01:19:39;;;;;;;6.10;2.97;;;;;;;;;;750410;185;904968;-70
2021/05/05 01:22:05;;;;;;;5.18;3.12;;;;;;;;;;748229;185;1028005;-69
2021/05/05 01:24:32;;;;;;;6.57;2.87;;;;;;;;;;742375;185;919113;-71
2021/05/05 01:26:58;;;;;;;5.63;2.97;;;;;;;;;;749781;188;919022;-69
2021/05/05 01:29:24;;;;;;;3.67;2.60;;;;;;;;;;747141;187;910199;-70
2021/05/05 01:31:49;;;;;;;5.97;2.77;;;;;;;;;;746286;186;630016;-69
2021/05/05 01:34:15;;;;;;;3.60;2.50;;;;;;;;;;752612;184;626109;-70
2021/05/05 01:36:41;;;;;;;4.30;2.90;;;;;;;;;;746080;185;628157;-70
2021/05/05 01:39:07;;;;;;;8.07;4.03;;;;;;;;;;748255;186;637460;-70
2021/05/05 01:41:33;;;;;;;4.00;3.30;;;;;;;;;;745856;187;631661;-70
2021/05/05 01:43:59;;;;;;;4.97;3.27;;;;;;;;;;748294;185;918212;-69
2021/05/05 01:46:25;;;;;;;6.17;3.30;;;;;;;;;;740729;185;922346;-70
2021/05/05 01:48:53;;;;;;;4.20;3.10;;;;;;;;;;744183;185;920152;-69
2021/05/05 01:51:19;;;;;;;4.10;3.37;;;;;;;;;;748039;185;1102881;-69
2021/05/05 01:53:45;;;;;;;6.33;3.33;;;;;;;;;;745358;186;916634;-69
2021/05/05 01:56:11;;;;;;;5.60;3.40;;;;;;;;;;741945;185;941567;-69
2021/05/05 01:58:37;;;;;;;7.50;4.20;;;;;;;;;;750603;184;919221;-69
2021/05/05 02:01:02;;;;;;;4.60;2.83;;;;;;;;;;742762;185;1017126;-69
2021/05/05 02:03:28;;;;;;;6.77;4.00;;;;;;;;;;747268;187;920921;-69
2021/05/05 02:05:54;;;;;;;4.80;3.27;;;;;;;;;;746513;186;920532;-69
2021/05/05 02:08:20;;;;;;;5.13;2.70;;;;;;;;;;750626;184;918925;-69
2021/05/05 02:10:46;;;;;;;5.73;3.30;;;;;;;;;;743054;185;918604;-69
2021/05/05 02:13:12;;;;;;;4.90;2.67;;;;;;;;;;746414;184;919490;-69
2021/05/05 02:15:38;;;;;;;5.25;3.12;;;;;;;;;;750393;187;918735;-68
2021/05/05 02:18:06;;;;;;;3.90;2.97;;;;;;;;;;741878;186;920131;-68
2021/05/05 02:20:30;;;;;;;3.92;2.90;;;;;;;;;;743804;186;1021328;-68
2021/05/05 02:22:56;;;;;;;8.10;4.27;;;;;;;;;;747861;186;920380;-69
2021/05/05 02:25:22;;;;;;;5.90;3.10;;;;;;;;;;746061;186;919339;-68
2021/05/05 02:27:49;;;;;;;4.30;3.53;;;;;;;;;;743714;184;920068;-68
2021/05/05 02:30:14;;;;;;;5.33;2.70;;;;;;;;;;751035;186;919396;-69
2021/05/05 02:32:40;;;;;;;5.53;3.30;;;;;;;;;;746481;186;1470188;-69
2021/05/05 02:35:06;;;;;;;4.37;2.93;;;;;;;;;;747265;186;810953;-69
2021/05/05 02:37:32;;;;;;;7.03;3.27;;;;;;;;;;747047;186;636226;-68
2021/05/05 02:39:57;;;;;;;4.77;2.70;;;;;;;;;;751613;185;628179;-69
2021/05/05 02:42:23;;;;;;;4.03;2.60;;;;;;;;;;746777;185;912352;-68
2021/05/05 02:44:49;;;;;;;5.10;3.10;;;;;;;;;;742644;186;913183;-68
2021/05/05 02:47:16;;;;;;;6.30;2.90;;;;;;;;;;748587;188;937717;-70
2021/05/05 02:49:42;;;;;;;4.53;3.50;;;;;;;;;;744173;186;918942;-68
2021/05/05 02:52:07;;;;;;;5.43;3.37;;;;;;;;;;744326;188;919174;-68
2021/05/05 02:54:33;;;;;;;4.68;3.00;;;;;;;;;;746273;184;918881;-68
2021/05/05 02:56:59;;;;;;;3.83;2.40;;;;;;;;;;742455;186;930879;-67
2021/05/05 02:59:25;;;;;;;4.87;2.70;;;;;;;;;;740701;187;921402;-68
2021/05/05 03:01:52;;;;;;;3.87;3.00;;;;;;;;;;743840;186;918899;-68
2021/05/05 03:04:17;;;;;;;3.93;3.20;;;;;;;;;;747865;185;919400;-68
2021/05/05 03:06:43;;;;;;;4.40;3.30;;;;;;;;;;742089;188;914922;-68
2021/05/05 03:09:09;;;;;;;4.13;3.13;;;;;;;;;;745361;187;625400;-68
2021/05/05 03:11:35;;;;;;;5.80;2.53;;;;;;;;;;750366;186;915433;-68
2021/05/05 03:14:01;;;;;;;3.90;2.70;;;;;;;;;;737843;185;1985071;-69
2021/05/05 03:16:28;;;;;;;4.83;3.30;;;;;;;;;;745407;186;919189;-68
2021/05/05 03:18:54;;;;;;;4.20;3.28;;;;;;;;;;746374;185;919328;-72
2021/05/05 03:21:20;;;;;;;5.57;3.23;;;;;;;;;;739612;185;2003621;-67
2021/05/05 03:23:46;;;;;;;6.93;3.08;;;;;;;;;;744390;185;976643;-68
2021/05/05 03:26:12;;;;;;;4.33;2.77;;;;;;;;;;744667;185;919656;-68
2021/05/05 03:28:38;;;;;;;5.37;3.73;;;;;;;;;;749645;186;919089;-69
2021/05/05 03:31:03;;;;;;;8.45;3.85;;;;;;;;;;746767;186;918529;-68
2021/05/05 03:33:29;;;;;;;5.70;3.10;;;;;;;;;;749741;185;626104;-67
2021/05/05 03:35:55;;;;;;;4.70;3.50;;;;;;;;;;751012;186;627102;-68
2021/05/05 03:38:21;;;;;;;17.13;4.23;;;;;;;;;;748580;185;928031;-68
2021/05/05 03:40:47;;;;;;;5.77;3.40;;;;;;;;;;745558;185;1049578;-69
2021/05/05 03:43:13;;;;;;;5.62;4.07;;;;;;;;;;750782;185;919189;-68
2021/05/05 03:45:38;;;;;;;5.23;3.37;;;;;;;;;;743719;186;929227;-68
2021/05/05 03:48:05;;;;;;;4.83;3.27;;;;;;;;;;744024;186;919574;-68
2021/05/05 03:50:30;;;;;;;5.43;4.23;;;;;;;;;;743615;186;896207;-68
2021/05/05 03:52:56;;;;;;;4.20;3.73;;;;;;;;;;747033;186;921552;-68
2021/05/05 03:55:22;;;;;;;7.00;3.50;;;;;;;;;;743004;185;947267;-71
2021/05/05 03:57:48;;;;;;;4.77;3.73;;;;;;;;;;742839;188;919454;-69
2021/05/05 04:00:14;;;;;;;10.23;4.20;;;;;;;;;;751389;186;859234;-69
2021/05/05 04:02:40;;;;;;;5.10;3.90;;;;;;;;;;748563;185;917283;-68
2021/05/05 04:05:06;;;;;;;9.80;3.50;;;;;;;;;;746419;187;918185;-69
2021/05/05 04:07:32;;;;;;;5.00;3.17;;;;;;;;;;747434;187;920256;-69
2021/05/05 04:09:58;;;;;;;6.40;3.80;;;;;;;;;;746081;187;816026;-70
2021/05/05 04:12:24;;;;;;;5.03;3.57;;;;;;;;;;744489;186;917410;-69
2021/05/05 04:14:49;;;;;;;4.27;3.37;;;;;;;;;;747611;187;919273;-68
2021/05/05 04:17:15;;;;;;;4.37;3.50;;;;;;;;;;743199;185;918899;-69
2021/05/05 04:19:41;;;;;;;4.13;3.57;;;;;;;;;;744578;185;918249;-69
2021/05/05 04:22:07;;;;;;;4.20;3.30;;;;;;;;;;741340;186;918620;-69
2021/05/05 04:24:33;;;;;;;7.37;3.67;;;;;;;;;;750392;185;919523;-69
2021/05/05 04:26:59;;;;;;;4.70;3.60;;;;;;;;;;741722;186;1051055;-69
2021/05/05 04:29:25;;;;;;;3.93;3.27;;;;;;;;;;743384;187;918155;-68
2021/05/05 04:31:52;;;;;;;4.30;2.60;;;;;;;;;;747947;185;914790;-68
2021/05/05 04:34:17;;;;;;;5.13;3.07;;;;;;;;;;742358;186;918823;-68
2021/05/05 04:36:43;;;;;;;4.20;3.23;;;;;;;;;;744323;187;920064;-68
2021/05/05 04:39:09;;;;;;;5.00;2.90;;;;;;;;;;749873;184;918914;-68
2021/05/05 04:41:35;;;;;;;5.80;3.40;;;;;;;;;;744315;186;915766;-69
2021/05/05 04:44:00;;;;;;;4.80;2.97;;;;;;;;;;742939;185;918294;-68
2021/05/05 04:46:26;;;;;;;5.35;3.40;;;;;;;;;;744610;186;919367;-68
2021/05/05 04:48:54;;;;;;;9.73;2.97;;;;;;;;;;745588;182;1834937;-68
2021/05/05 04:51:19;;;;;;;3.77;2.63;;;;;;;;;;743416;186;919207;-69
2021/05/05 04:53:45;;;;;;;4.07;3.03;;;;;;;;;;743791;186;914340;-68
2021/05/05 04:56:11;;;;;;;3.60;2.63;;;;;;;;;;748216;186;919342;-68
2021/05/05 04:58:37;;;;;;;8.02;3.20;;;;;;;;;;742703;185;919128;-68
2021/05/05 05:01:03;;;;;;;3.93;2.70;;;;;;;;;;743722;187;919366;-67
2021/05/05 05:03:29;;;;;;;3.47;2.67;;;;;;;;;;745815;185;1037295;-67
2021/05/05 05:05:54;;;;;;;6.40;3.13;;;;;;;;;;744963;185;919568;-68
2021/05/05 05:08:20;;;;;;;5.65;3.65;;;;;;;;;;741994;185;1178466;-68
2021/05/05 05:10:46;;;;;;;4.20;3.17;;;;;;;;;;744320;188;919680;-68
2021/05/05 05:13:12;;;;;;;4.12;3.17;;;;;;;;;;743695;186;918880;-68
2021/05/05 05:15:38;;;;;;;6.50;3.57;;;;;;;;;;742491;186;918812;-68
2021/05/05 05:18:04;;;;;;;4.73;3.13;;;;;;;;;;744160;186;919377;-68
2021/05/05 05:20:30;;;;;;;5.18;3.42;;;;;;;;;;747945;185;918356;-68
2021/05/05 05:22:56;;;;;;;3.80;2.70;;;;;;;;;;744200;186;919908;-68
2021/05/05 05:25:22;;;;;;;4.30;3.10;;;;;;;;;;741287;185;1021475;-68
2021/05/05 05:27:47;;;;;;;4.30;3.00;;;;;;;;;;752150;185;917909;-68
2021/05/05 05:30:14;;;;;;;5.37;3.40;;;;;;;;;;743741;185;921441;-68
2021/05/05 05:32:39;;;;;;;6.60;3.80;;;;;;;;;;742947;185;919019;-68
2021/05/05 05:35:05;;;;;;;6.47;5.47;;;;;;;;;;750369;186;612585;-67
2021/05/05 05:37:31;;;;;;;4.00;2.87;;;;;;;;;;747783;187;633766;-68
2021/05/05 05:39:57;;;;;;;3.90;2.60;;;;;;;;;;740126;186;1353098;-67
2021/05/05 05:42:23;;;;;;;3.83;2.80;;;;;;;;;;746323;187;919046;-67
2021/05/05 05:44:49;;;;;;;10.00;4.13;;;;;;;;;;751711;186;618408;-67
2021/05/05 05:47:15;;;;;;;3.70;2.87;;;;;;;;;;744884;186;919745;-67
2021/05/05 05:49:41;;;;;;;5.97;2.93;;;;;;;;;;745691;186;893785;-69
2021/05/05 05:52:07;;;;;;;4.90;3.33;;;;;;;;;;752720;186;918187;-68
2021/05/05 05:54:33;;;;;;;4.30;2.97;;;;;;;;;;744356;186;920103;-68
2021/05/05 05:56:59;;;;;;;4.93;3.50;;;;;;;;;;743055;185;919090;-67
2021/05/05 05:59:25;;;;;;;3.80;2.17;;;;;;;;;;750199;185;918602;-68
2021/05/05 06:01:51;;;;;;;7.20;2.90;;;;;;;;;;741555;186;922620;-67
2021/05/05 06:04:17;;;;;;;4.33;2.70;;;;;;;;;;744412;185;919476;-67
2021/05/05 06:06:42;;;;;;;4.97;3.47;;;;;;;;;;742265;186;1021135;-67
2021/05/05 06:09:08;;;;;;;3.70;2.67;;;;;;;;;;746168;184;919667;-67
2021/05/05 06:11:34;;;;;;;4.97;2.67;;;;;;;;;;744746;186;918809;-67
2021/05/05 06:14:00;;;;;;;4.90;2.37;;;;;;;;;;745157;186;919338;-68
2021/05/05 06:16:26;;;;;;;5.00;2.70;;;;;;;;;;747029;186;1186966;-67
2021/05/05 06:18:51;;;;;;;5.57;2.70;;;;;;;;;;743941;185;920228;-67
2021/05/05 06:21:17;;;;;;;4.70;2.70;;;;;;;;;;742514;187;919402;-67
2021/05/05 06:23:43;;;;;;;4.20;2.83;;;;;;;;;;750839;186;919317;-67
2021/05/05 06:26:09;;;;;;;3.50;2.50;;;;;;;;;;744150;185;919310;-68
2021/05/05 06:28:35;;;;;;;4.73;2.33;;;;;;;;;;746072;185;918252;-66
2021/05/05 06:31:02;;;;;;;4.47;2.78;;;;;;;;;;747844;187;919234;-67
2021/05/05 06:33:28;;;;;;;3.73;2.40;;;;;;;;;;738766;186;918604;-65
2021/05/05 06:35:54;;;;;;;4.80;2.53;;;;;;;;;;742830;187;919658;-68
2021/05/05 06:38:19;;;;;;;5.53;2.40;;;;;;;;;;740835;185;1021147;-67
2021/05/05 06:40:45;;;;;;;3.80;2.70;;;;;;;;;;748368;187;920609;-66
2021/05/05 06:43:11;;;;;;;5.90;2.47;;;;;;;;;;743711;185;918073;-67
2021/05/05 06:45:37;;;;;;;3.47;2.40;;;;;;;;;;743904;187;930093;-66
2021/05/05 06:48:03;;;;;;;4.57;2.20;;;;;;;;;;748320;185;919111;-66
2021/05/05 06:50:29;;;;;;;5.80;3.30;;;;;;;;;;744491;186;919076;-66
2021/05/05 06:52:55;;;;;;;5.03;2.60;;;;;;;;;;742923;186;918729;-66
2021/05/05 06:55:21;;;;;;;5.10;3.10;;;;;;;;;;748505;186;920960;-66
2021/05/05 06:57:47;;;;;;;4.37;2.43;;;;;;;;;;741545;186;1020015;-67
2021/05/05 07:00:13;;;;;;;3.60;2.50;;;;;;;;;;744939;185;919556;-67
2021/05/05 07:02:39;;;;;;;4.30;3.00;;;;;;;;;;743884;186;1162687;-66
2021/05/05 07:05:05;;;;;;;2.90;2.30;;;;;;;;;;751293;186;918781;-66
2021/05/05 07:07:31;;;;;;;3.33;2.58;;;;;;;;;;745420;186;919385;-66
2021/05/05 07:09:57;;;;;;;5.30;2.73;;;;;;;;;;743078;185;919298;-66
2021/05/05 07:12:23;;;;;;;4.10;2.77;;;;;;;;;;749144;187;919470;-65
2021/05/05 07:14:49;;;;;;;6.67;2.70;;;;;;;;;;743356;186;919961;-66
2021/05/05 07:17:15;;;;;;;4.80;2.73;;;;;;;;;;747024;185;922194;-65
2021/05/05 07:19:41;;;;;;;2.97;2.27;;;;;;;;;;747763;187;919658;-65
2021/05/05 07:22:06;;;;;;;7.70;2.53;;;;;;;;;;748120;185;919817;-65
2021/05/05 07:24:33;;;;;;;8.53;2.40;;;;;;;;;;741386;185;942402;-67
2021/05/05 07:26:58;;;;;;;4.97;2.70;;;;;;;;;;743327;186;920217;-65
2021/05/05 07:29:24;;;;;;;7.43;2.63;;;;;;;;;;742785;186;921594;-67
2021/05/05 07:31:50;;;;;;;4.67;2.87;;;;;;;;;;742850;187;919961;-66
2021/05/05 07:34:16;;;;;;;4.87;2.27;;;;;;;;;;743634;185;920960;-65
2021/05/05 07:36:45;;;;;;;3.30;2.70;;;;;;;;;;751924;185;912887;-66
2021/05/05 07:39:19;;;;;;;5.13;2.73;;;;;;;;;;744514;185;920294;-65
2021/05/05 07:44:48;;;;;;;4.37;2.93;;;;;;;;;;744055;185;1188092;-66
2021/05/05 07:46:53;;;;;;;3.57;2.60;;;;;;;;;;753916;183;812840;-68
2021/05/05 07:49:15;;;;;;;3.77;2.10;;;;;;;;;;742455;187;907027;-68
2021/05/05 07:51:38;;;;;;;3.70;2.70;;;;;;;;;;742620;186;912731;-66
2021/05/05 07:54:04;;;;;;;4.97;2.30;;;;;;;;;;742233;185;909692;-65
2021/05/05 07:56:30;;;;;;;6.13;2.63;;;;;;;;;;747804;185;909962;-66
2021/05/05 07:59:01;;;;;;;3.70;2.67;;;;;;;;;;744146;187;910028;-66
2021/05/05 08:01:21;;;;;;;3.67;2.70;;;;;;;;;;744848;186;758166;-65
2021/05/05 08:03:47;;;;;;;3.50;2.63;;;;;;;;;;752306;185;630849;-64
2021/05/05 08:06:13;;;;;;;3.77;2.63;;;;;;;;;;745835;187;917566;-65
2021/05/05 08:08:39;;;;;;;3.50;2.28;;;;;;;;;;743454;185;920855;-69
2021/05/05 08:11:05;;;;;;;4.23;2.93;;;;;;;;;;749258;185;897968;-69
2021/05/05 08:13:30;;;;;;;4.60;2.67;;;;;;;;;;747657;184;916299;-67
2021/05/05 08:15:56;;;;;;;5.85;2.53;;;;;;;;;;743928;185;1021070;-66
2021/05/05 08:18:22;;;;;;;3.53;2.40;;;;;;;;;;745290;185;919478;-69
2021/05/05 08:20:48;;;;;;;3.10;2.10;;;;;;;;;;747438;184;919031;-67
2021/05/05 08:23:16;;;;;;;3.47;2.40;;;;;;;;;;742980;185;919180;-66
2021/05/05 08:25:41;;;;;;;3.87;2.90;;;;;;;;;;743246;186;919401;-66
2021/05/05 08:28:07;;;;;;;3.53;2.93;;;;;;;;;;748614;186;907516;-69
2021/05/05 08:30:32;;;;;;;6.30;3.00;;;;;;;;;;743952;187;920283;-68
2021/05/05 08:32:58;;;;;;;3.90;2.70;;;;;;;;;;741846;185;1172261;-70
2021/05/05 08:35:24;;;;;;;4.43;2.40;;;;;;;;;;749103;185;921352;-67
2021/05/05 08:37:51;;;;;;;5.73;3.30;;;;;;;;;;743161;185;920414;-66
2021/05/05 08:40:16;;;;;;;3.00;2.63;;;;;;;;;;743972;185;919231;-65
2021/05/05 08:42:42;;;;;;;4.60;2.75;;;;;;;;;;746946;185;916979;-67
2021/05/05 08:45:11;;;;;;;4.53;3.00;;;;;;;;;;743916;187;916784;-68
2021/05/05 08:47:37;;;;;;;4.57;2.83;;;;;;;;;;742854;186;915089;-69
2021/05/05 08:50:02;;;;;;;5.32;2.78;;;;;;;;;;745625;185;922821;-68
2021/05/05 08:52:28;;;;;;;4.13;3.10;;;;;;;;;;747481;185;951865;-69
2021/05/05 08:54:54;;;;;;;6.40;3.43;;;;;;;;;;747317;185;919936;-68
2021/05/05 08:57:21;;;;;;;4.47;3.20;;;;;;;;;;744090;185;928826;-67
2021/05/05 08:59:46;;;;;;;5.03;3.70;;;;;;;;;;747991;185;913143;-67
2021/05/05 09:02:12;;;;;;;4.43;2.97;;;;;;;;;;742369;185;914499;-67
2021/05/05 09:04:38;;;;;;;5.15;3.60;;;;;;;;;;743473;185;1014945;-69
2021/05/05 09:07:05;;;;;;;5.95;3.00;;;;;;;;;;745133;186;917270;-67
2021/05/05 09:09:33;;;;;;;4.70;3.70;;;;;;;;;;745852;186;624540;-67
2021/05/05 09:11:58;;;;;;;4.53;3.03;;;;;;;;;;749191;185;915831;-69
2021/05/05 09:14:27;;;;;;;8.93;4.00;;;;;;;;;;739413;185;1485157;-69
2021/05/05 09:16:50;;;;;;;4.73;3.53;;;;;;;;;;751084;185;912354;-67
2021/05/05 09:19:16;;;;;;;5.20;4.00;;;;;;;;;;742363;186;920228;-70
2021/05/05 09:21:43;;;;;;;6.73;4.40;;;;;;;;;;745729;186;912526;-69
2021/05/05 09:24:13;;;;;;;7.10;4.27;;;;;;;;;;750090;184;915783;-67
2021/05/05 09:26:39;;;;;;;7.40;4.40;;;;;;;;;;750025;187;914874;-69
2021/05/05 09:29:05;;;;;;;5.07;3.47;;;;;;;;;;743809;186;916448;-70
2021/05/05 09:31:31;;;;;;;5.87;4.20;;;;;;;;;;743992;186;920260;-69
2021/05/05 09:33:57;;;;;;;4.97;4.20;;;;;;;;;;746569;185;919226;-69
2021/05/05 09:36:23;;;;;;;8.67;4.30;;;;;;;;;;744777;186;919466;-69
2021/05/05 09:38:50;;;;;;;7.73;4.17;;;;;;;;;;743609;186;919508;-67
2021/05/05 09:41:15;;;;;;;5.20;4.30;;;;;;;;;;749067;187;918749;-69
2021/05/05 09:43:42;;;;;;;6.20;3.77;;;;;;;;;;744544;186;919201;-67
2021/05/05 09:46:14;;;;;;;9.23;3.50;;;;;;;;;;743935;187;919042;-70
2021/05/05 09:48:40;;;;;;;6.83;3.77;;;;;;;;;;743651;185;920290;-70
2021/05/05 09:51:05;;;;;;;5.50;3.23;;;;;;;;;;748373;187;892082;-68
2021/05/05 09:53:32;;;;;;;4.87;3.27;;;;;;;;;;742409;187;1097388;-68
2021/05/05 09:56:06;;;;;;;3.70;3.07;;;;;;;;;;743362;186;915342;-68
2021/05/05 09:58:34;;;;;;;6.77;4.00;;;;;;;;;;745854;185;921773;-67
2021/05/05 10:01:15;;;;;;;4.40;3.20;;;;;;;;;;747495;185;982244;-69
2021/05/05 10:03:40;;;;;;;5.33;4.37;;;;;;;;;;747535;186;920197;-68
2021/05/05 10:06:12;;;;;;;10.50;3.10;;;;;;;;;;743351;186;921510;-66
2021/05/05 10:08:38;;;;;;;5.87;3.30;;;;;;;;;;745572;184;920854;-68
2021/05/05 10:11:03;;;;;;;6.83;3.70;;;;;;;;;;747765;186;875818;-66
2021/05/05 10:13:29;;;;;;;4.63;3.23;;;;;;;;;;744431;187;933856;-68
2021/05/05 10:15:55;;;;;;;6.55;3.35;;;;;;;;;;744011;185;919681;-67
2021/05/05 10:18:23;;;;;;;8.40;4.00;;;;;;;;;;746995;183;919174;-67
2021/05/05 10:20:48;;;;;;;5.95;2.90;;;;;;;;;;751257;184;917946;-69
2021/05/05 10:23:13;;;;;;;4.63;3.37;;;;;;;;;;742629;187;918942;-68
2021/05/05 10:25:42;;;;;;;7.83;4.10;;;;;;;;;;740836;186;919044;-67
2021/05/05 10:28:04;;;;;;;7.90;3.10;;;;;;;;;;747827;186;919183;-67
2021/05/05 10:30:33;;;;;;;4.87;3.70;;;;;;;;;;745886;185;918937;-68
2021/05/05 10:32:57;;;;;;;4.60;3.30;;;;;;;;;;742990;186;928336;-69
2021/05/05 10:35:23;;;;;;;4.27;3.20;;;;;;;;;;749690;186;918831;-67
2021/05/05 10:37:49;;;;;;;3.60;2.50;;;;;;;;;;743866;185;919091;-67
2021/05/05 10:40:19;;;;;;;4.95;2.58;;;;;;;;;;747082;185;919847;-67
2021/05/05 10:42:49;;;;;;;4.10;2.90;;;;;;;;;;744129;185;919551;-67
2021/05/05 10:45:24;;;;;;;4.27;3.07;;;;;;;;;;755027;185;916277;-70
2021/05/05 10:47:50;;;;;;;3.10;1.93;;;;;;;;;;747218;186;919004;-68
2021/05/05 10:50:16;;;;;;;2.70;2.10;;;;;;;;;;743737;186;917850;-70
2021/05/05 10:52:59;;;;;;;3.30;1.73;;;;;;;;;;747088;184;625846;-70
2021/05/05 10:55:28;;;;;;;3.00;1.40;;;;;;;;;;747618;186;891856;-70
2021/05/05 10:58:00;;;;;;;4.85;2.30;;;;;;;;;;747421;185;917641;-69
2021/05/05 11:00:26;;;;;;;2.20;1.50;;;;;;;;;;748563;186;918017;-69
2021/05/05 11:02:53;;;;;;;1.90;1.00;;;;;;;;;;741489;185;919456;-69
2021/05/05 11:05:21;;;;;;;2.80;1.53;;;;;;;;;;743417;186;1162663;-69
2021/05/05 11:07:47;;;;;;;1.90;1.03;;;;;;;;;;742692;186;2008027;-69
2021/05/05 11:10:28;;;;;;;2.10;0.90;;;;;;;;;;743918;186;919432;-68
2021/05/05 11:12:54;;;;;;;3.60;1.30;;;;;;;;;;743969;184;917364;-70
2021/05/05 11:15:20;;;;;;;1.77;0.90;;;;;;;;;;744392;185;918977;-71
2021/05/05 11:17:46;;;;;;;3.93;0.97;;;;;;;;;;750347;185;919463;-70
2021/05/05 11:20:11;;;;;;;1.93;1.10;;;;;;;;;;742955;185;921081;-70
2021/05/05 11:22:41;;;;;;;2.45;1.00;;;;;;;;;;740698;185;1021161;-71
2021/05/05 11:25:13;;;;;;;2.53;1.07;;;;;;;;;;747325;185;918985;-69
2021/05/05 11:27:44;;;;;;;2.40;0.90;;;;;;;;;;749114;184;919053;-70
2021/05/05 11:30:16;;;;;;;3.60;0.90;;;;;;;;;;741749;185;1077714;-70
2021/05/05 11:32:41;;;;;;;1.60;0.70;;;;;;;;;;742997;186;919253;-70
2021/05/05 11:35:07;;;;;;;3.55;0.93;;;;;;;;;;741380;185;1224004;-69
2021/05/05 11:37:33;;;;;;;1.77;1.00;;;;;;;;;;750492;186;919946;-70
2021/05/05 11:39:59;;;;;;;1.60;0.80;;;;;;;;;;743337;185;919605;-68
2021/05/05 11:42:26;;;;;;;2.20;1.10;;;;;;;;;;744609;186;918920;-68
2021/05/05 11:44:51;;;;;;;2.27;1.00;;;;;;;;;;747471;185;919082;-68
2021/05/05 11:47:17;;;;;;;2.23;1.10;;;;;;;;;;746178;183;1021444;-68
2021/05/05 11:49:44;;;;;;;3.85;1.70;;;;;;;;;;743587;185;919643;-69
2021/05/05 11:52:15;;;;;;;2.87;1.27;;;;;;;;;;744426;185;922311;-68
2021/05/05 11:54:41;;;;;;;2.77;1.00;;;;;;;;;;748202;186;919748;-69
2021/05/05 11:57:08;;;;;;;2.03;1.00;;;;;;;;;;745326;185;919571;-70
2021/05/05 11:59:34;;;;;;;3.20;1.43;;;;;;;;;;746164;184;917804;-69
2021/05/05 12:02:03;;;;;;;3.73;1.53;;;;;;;;;;749717;186;918636;-68
2021/05/05 12:04:29;;;;;;;2.77;1.10;;;;;;;;;;745163;186;917374;-68
2021/05/05 12:06:55;;;;;;;6.00;1.50;;;;;;;;;;744482;187;919080;-68
2021/05/05 12:09:23;;;;;;;2.25;1.33;;;;;;;;;;742215;185;920115;-67
2021/05/05 12:11:49;;;;;;;4.03;1.37;;;;;;;;;;749623;186;918466;-68
2021/05/05 12:14:21;;;;;;;2.83;1.30;;;;;;;;;;747249;185;918675;-69
2021/05/05 12:16:47;;;;;;;3.40;1.40;;;;;;;;;;741631;185;984869;-69
2021/05/05 12:19:13;;;;;;;2.23;1.37;;;;;;;;;;743378;187;916390;-68
2021/05/05 12:21:39;;;;;;;2.50;1.50;;;;;;;;;;748455;186;916584;-68
2021/05/05 12:24:05;;;;;;;3.30;1.80;;;;;;;;;;743971;186;916453;-69
2021/05/05 12:26:31;;;;;;;3.33;2.07;;;;;;;;;;742424;186;918289;-70
2021/05/05 12:28:57;;;;;;;4.33;1.50;;;;;;;;;;748344;185;914696;-69
2021/05/05 12:31:23;;;;;;;3.33;1.77;;;;;;;;;;739762;187;936922;-69
2021/05/05 12:33:48;;;;;;;2.93;1.90;;;;;;;;;;745423;186;912642;-69
2021/05/05 12:36:16;;;;;;;2.80;1.73;;;;;;;;;;746378;187;929934;-69
2021/05/05 12:38:44;;;;;;;3.70;1.97;;;;;;;;;;744129;186;920345;-72
2021/05/05 12:41:09;;;;;;;4.77;1.90;;;;;;;;;;743444;187;915226;-69
2021/05/05 12:43:35;;;;;;;2.30;1.50;;;;;;;;;;745765;186;919130;-69
2021/05/05 12:46:01;;;;;;;3.77;1.70;;;;;;;;;;747480;186;919033;-68
2021/05/05 12:48:28;;;;;;;2.53;1.90;;;;;;;;;;744605;187;919166;-68
2021/05/05 12:50:56;;;;;;;2.63;1.80;;;;;;;;;;739569;186;1616248;-70
2021/05/05 12:53:22;;;;;;;2.50;1.57;;;;;;;;;;747632;186;969224;-69
2021/05/05 12:55:53;;;;;;;2.73;1.67;;;;;;;;;;743982;186;919657;-69
2021/05/05 12:58:14;;;;;;;3.40;1.80;;;;;;;;;;742181;184;1233721;-70
2021/05/05 13:00:41;;;;;;;6.47;1.83;;;;;;;;;;752693;184;919347;-69
2021/05/05 13:03:07;;;;;;;2.77;2.07;;;;;;;;;;748873;185;816871;-70
2021/05/05 13:05:33;;;;;;;3.73;2.47;;;;;;;;;;744019;185;1021504;-70
2021/05/05 13:08:04;;;;;;;3.08;1.85;;;;;;;;;;741298;186;938544;-69
2021/05/05 13:10:31;;;;;;;3.07;1.83;;;;;;;;;;754976;186;919557;-69
2021/05/05 13:13:02;;;;;;;3.17;1.10;;;;;;;;;;744662;184;920383;-69
2021/05/05 13:15:36;;;;;;;4.00;1.73;;;;;;;;;;746183;186;927542;-69
2021/05/05 13:18:08;;;;;;;3.40;1.30;;;;;;;;;;742462;185;918312;-67
2021/05/05 13:20:38;;;;;;;5.93;1.47;;;;;;;;;;748730;186;920411;-68
2021/05/05 13:26:09;;;;;;;1.70;1.03;;;;;;;;;;746338;185;915574;-68
2021/05/05 13:30:37;;;;;;;3.70;1.80;;;;;;;;;;748451;187;622749;-69
2021/05/05 13:33:03;;;;;;;3.43;1.47;;;;;;;;;;754918;184;918940;-68
2021/05/05 13:35:28;;;;;;;3.57;1.60;;;;;;;;;;748577;185;919972;-68
2021/05/05 13:37:56;;;;;;;4.23;1.40;;;;;;;;;;741566;185;919456;-68
2021/05/05 13:40:21;;;;;;;2.83;1.40;;;;;;;;;;745256;187;920069;-69
2021/05/05 13:42:48;;;;;;;2.80;1.47;;;;;;;;;;754781;185;885015;-69
2021/05/05 13:45:14;;;;;;;2.33;1.23;;;;;;;;;;742985;185;919383;-71
2021/05/05 13:47:46;;;;;;;3.20;1.27;;;;;;;;;;743854;187;919184;-70
2021/05/05 13:50:10;;;;;;;3.53;1.70;;;;;;;;;;746158;187;918691;-70
2021/05/05 13:52:36;;;;;;;5.57;2.28;;;;;;;;;;744231;187;919340;-71
2021/05/05 13:55:02;;;;;;;2.20;1.37;;;;;;;;;;740630;184;919488;-71
2021/05/05 13:57:28;;;;;;;3.80;1.92;;;;;;;;;;747890;187;918907;-70
2021/05/05 13:59:54;;;;;;;2.83;1.87;;;;;;;;;;750240;184;918478;-72
2021/05/05 14:02:20;;;;;;;3.80;2.40;;;;;;;;;;743189;185;918033;-71
2021/05/05 14:04:46;;;;;;;3.20;1.75;;;;;;;;;;739122;184;1220432;-73
2021/05/05 14:07:13;;;;;;;3.50;1.80;;;;;;;;;;748733;185;920289;-72
2021/05/05 14:09:38;;;;;;;3.57;1.60;;;;;;;;;;742124;185;919574;-73
2021/05/05 14:12:04;;;;;;;4.03;2.10;;;;;;;;;;748171;185;919735;-73
2021/05/05 14:14:31;;;;;;;4.57;1.75;;;;;;;;;;749102;185;920319;-73
2021/05/05 14:16:57;;;;;;;2.87;1.87;;;;;;;;;;746227;185;919049;-74
2021/05/05 14:19:22;;;;;;;3.50;1.97;;;;;;;;;;743777;185;1020490;-74
2021/05/05 14:21:48;;;;;;;2.90;1.85;;;;;;;;;;747895;186;921265;-73
2021/05/05 14:24:15;;;;;;;3.83;2.50;;;;;;;;;;744849;186;919401;-73
2021/05/05 14:26:39;;;;;;;5.97;2.00;;;;;;;;;;743945;186;915662;-74
2021/05/05 14:29:05;;;;;;;4.50;2.27;;;;;;;;;;745859;185;915243;-73
2021/05/05 14:31:31;;;;;;;3.00;1.80;;;;;;;;;;750211;186;627836;-73